Huvudsida
METAR-TAF:

METAR-TAF

Flygplatser :

Arlanda

Stockholm-Arlanda, Sverige

latitud: 59-39N, longitud: 017-57E, höjd: 38 m

Aktuellt väderrapport

Denna rapport gjordes för 15 minuter sedan, klockan 21:20 UTC
Vind 7 kt från sydväst
Temperatur 16°C
Fuktighet 68%
Tryck 1010 hPa
Sikt 10 km eller mer
Inga moln under 1 500 m eller inga cumulonimbus

METAR: ESSA 192120Z 23007KT CAVOK 16/10 Q1010 NOSIG

Tid: 23:35 (21:35 UTC)

Väderprognos

Denna rapport gjordes för 4 timmar och 5 minuter sedan, klockan 17:30 UTC
Prognos gäller från 19 kl. 18 UTC till 20 kl. 18 UTC
Vind 12 kt från sydväst
Sikt 10 km eller mer
Inga moln under 1 500 m eller inga cumulonimbus
Blir
från 20 kl. 00 UTC till 20 kl. 02 UTC
Vind 2 kt från väst/sydväst
Blir
från 20 kl. 06 UTC till 20 kl. 08 UTC
Vind 12 kt från nord/nordost

TAF: ESSA 191730Z 1918/2018 22012KT CAVOK BECMG 2000/2002 24002KT BECMG 2006/2008 02012KT

Aktuella väderrapporter och prognoser från 4000 flygplatser (METAR- och TAF-rapporter).

De tillgängliga stationerna syns som gula och röda prickar på kartan.

För musen över prickarna för att se namnen på stationerna.

Klicka sedan för att få väderrapporter och prognoser.

För att ändra kartan: Klicka på de gröna knapparna med ett svart kors på för att zooma in; den gröna knappen med ett streck på för att zooma ut; eller på de gröna pilarna för angränsande kartor.


METAR-TAF: